Twin Lakes, Idaho
Current Conditions -  °F | °C
As of 9:15 PM on Sunday 19 Oct 2014 (Local Time) from KCOE Reporting Station
Clear Clear  
Wind Chill: 50°   Ceiling: Unl
Heat Index: 50°   Visibility: 10mi
Dew Point: 45°   Wind: 8mph
Humidity: 82%   Direction: 70°ENE
Pressure: 29.81"   Gusts: NA
Location:  47.8426°N, 116.907°W
Report Text: KCOE 200415Z AUTO 07007KT 10SM CLR 10/07 A2981 RMK AO1
Loading
Personal Weather Stations






























Interactive Weather Map New forecast layout! Learn more

10-Day Weather Forecast

Advertisements
Track Severe Weather on mobile